MHLM/SAP METAR and TAF weather

Enter ICAO airport designator
Station Type Date Time Source
MHLM METAR 2019/11/22 01:00 UTC NOAA

MHLM 220100Z 01007KT 9999 FEW025 26/22 Q1014 A2995 NOSIG


Station Type Date Time Source
MHLM Decoded METAR 2019/11/22 01:00 UTC NOAA

La Mesa San Pedro Sula , Honduras (MHLM) 15-27N 087-56W 31M
Nov 21, 2019 - 08:00 PM EST / 2019.11.22 0100 UTC
Wind: from the N (010 degrees) at 8 MPH (7 KT):0
Visibility: greater than 7 mile(s):0
Sky conditions: mostly clear
Temperature: 78 F (26 C)
Dew Point: 71 F (22 C)
Relative Humidity: 78%
Pressure (altimeter): 29.95 in. Hg (1014 hPa)
ob: MHLM 220100Z 01007KT 9999 FEW025 26/22 Q1014 A2995 NOSIG
cycle: 1

Station Type Date Time Source
MHLM TAF 2019/11/21 18:17 UTC NOAA

TAF MHLM 211610Z 2118/2218 03010KT 9999 SCT028 SCT080 TX31/2121Z TN22/2212Z
BECMG 2201/2203 33004KT 7000 VCSH SCT026 BKN080
BECMG 2206/2208 VRB02KT 9999 NSW FEW024 SCT080
BECMG 2215/2217 03010KT SCT030

Example: see airport list